createdAt,value
2018-04-25T00:02:10.157Z,17.77
2018-04-25T00:04:36.813Z,17.84
2018-04-25T00:07:03.507Z,17.61
2018-04-25T00:09:30.120Z,17.32
2018-04-25T00:12:00.073Z,17.35
2018-04-25T00:14:26.582Z,17.53
2018-04-25T00:16:53.236Z,17.68
2018-04-25T00:19:19.991Z,17.52
2018-04-25T00:21:46.871Z,17.40
2018-04-25T00:24:13.541Z,17.72
2018-04-25T00:26:40.045Z,17.83
2018-04-25T00:29:06.681Z,17.88
2018-04-25T00:31:37.278Z,17.87
2018-04-25T00:34:04.014Z,17.61
2018-04-25T00:36:30.659Z,17.33
2018-04-25T00:38:57.348Z,17.44
2018-04-25T00:41:25.158Z,17.35
2018-04-25T00:43:51.769Z,17.45
2018-04-25T00:46:18.369Z,17.13
2018-04-25T00:48:44.981Z,16.93
2018-04-25T00:51:15.143Z,17.02
2018-04-25T00:53:42.481Z,17.18
2018-04-25T00:56:09.127Z,17.24
2018-04-25T00:58:35.720Z,17.20
2018-04-25T01:01:03.244Z,17.26
2018-04-25T01:03:29.853Z,17.34
2018-04-25T01:05:56.559Z,17.34
2018-04-25T01:08:23.192Z,17.31
2018-04-25T01:10:49.905Z,17.27
2018-04-25T01:13:16.573Z,17.25
2018-04-25T01:15:43.129Z,17.45
2018-04-25T01:18:09.876Z,17.55
2018-04-25T01:20:36.534Z,17.67
2018-04-25T01:23:07.363Z,17.74
2018-04-25T01:25:34.018Z,17.72
2018-04-25T01:28:12.285Z,17.70
2018-04-25T01:33:43.325Z,17.45
2018-04-25T01:39:06.822Z,17.39
2018-04-25T01:41:33.519Z,17.46
2018-04-25T01:44:00.095Z,17.44
2018-04-25T01:46:27.733Z,17.41
2018-04-25T01:52:02.015Z,17.60
2018-04-25T01:54:46.584Z,17.63
2018-04-25T01:57:31.267Z,17.61
2018-04-25T02:00:16.297Z,17.59
2018-04-25T02:02:52.473Z,17.74
2018-04-25T02:05:19.050Z,17.62
2018-04-25T02:07:45.744Z,17.61
2018-04-25T02:10:12.421Z,17.55
2018-04-25T02:12:40.085Z,17.53
2018-04-25T02:15:06.770Z,17.46
2018-04-25T02:17:33.450Z,17.44
2018-04-25T02:20:00.150Z,17.35
2018-04-25T02:22:30.707Z,17.25
2018-04-25T02:24:57.366Z,17.17
2018-04-25T02:27:24.045Z,17.17
2018-04-25T02:29:50.690Z,17.10
2018-04-25T02:32:20.771Z,17.19
2018-04-25T02:34:47.430Z,17.29
2018-04-25T02:37:14.205Z,17.22
2018-04-25T02:39:40.884Z,17.33
2018-04-25T02:42:11.716Z,17.37
2018-04-25T02:44:38.300Z,17.39
2018-04-25T02:47:04.935Z,17.34
2018-04-25T02:49:31.446Z,17.28
2018-04-25T02:51:58.109Z,17.29
2018-04-25T02:54:24.698Z,17.28
2018-04-25T02:56:51.345Z,17.31
2018-04-25T02:59:18.106Z,17.32
2018-04-25T03:01:45.962Z,17.19
2018-04-25T03:04:12.724Z,17.25
2018-04-25T03:06:39.292Z,17.17
2018-04-25T03:09:05.912Z,17.08
2018-04-25T03:11:42.628Z,17.12
2018-04-25T03:14:09.370Z,17.11
2018-04-25T03:16:36.152Z,17.09
2018-04-25T03:19:02.744Z,17.12
2018-04-25T03:21:33.310Z,17.16
2018-04-25T03:23:59.933Z,16.98
2018-04-25T03:26:26.750Z,17.13
2018-04-25T03:28:53.482Z,16.98
2018-04-25T03:31:21.279Z,16.89
2018-04-25T03:33:48.018Z,17.10
2018-04-25T03:36:14.665Z,17.01
2018-04-25T03:38:41.368Z,17.06
2018-04-25T03:41:11.167Z,16.93
2018-04-25T03:43:37.902Z,17.10
2018-04-25T03:46:04.538Z,17.14
2018-04-25T03:48:31.109Z,17.08
2018-04-25T03:50:58.939Z,17.17
2018-04-25T03:53:25.642Z,17.23
2018-04-25T03:55:52.213Z,17.25
2018-04-25T03:58:18.899Z,17.33
2018-04-25T04:00:49.133Z,17.46
2018-04-25T04:03:15.863Z,17.48
2018-04-25T04:05:42.543Z,17.61
2018-04-25T04:08:09.314Z,17.64
2018-04-25T04:10:39.706Z,17.61
2018-04-25T04:13:06.498Z,17.57
2018-04-25T04:15:32.960Z,17.59
2018-04-25T04:17:59.674Z,17.87
2018-04-25T04:20:26.401Z,17.96
2018-04-25T04:22:53.114Z,18.04
2018-04-25T04:25:19.755Z,18.12
2018-04-25T04:27:46.523Z,18.08
2018-04-25T04:30:13.266Z,18.24
2018-04-25T04:32:45.114Z,18.33
2018-04-25T04:35:11.828Z,18.33
2018-04-25T04:37:38.613Z,18.28
2018-04-25T04:40:05.273Z,18.33
2018-04-25T04:42:38.069Z,18.34
2018-04-25T04:45:04.828Z,18.48
2018-04-25T04:47:31.488Z,18.51
2018-04-25T04:49:58.299Z,18.50
2018-04-25T04:52:28.452Z,18.58
2018-04-25T04:54:55.053Z,18.63
2018-04-25T04:57:21.823Z,18.71
2018-04-25T04:59:48.691Z,18.90
2018-04-25T05:02:15.459Z,18.88
2018-04-25T05:04:42.223Z,19.15
2018-04-25T05:07:11.904Z,19.24
2018-04-25T05:09:38.600Z,19.26
2018-04-25T05:12:08.509Z,19.34
2018-04-25T05:14:35.453Z,19.64
2018-04-25T05:17:01.966Z,19.61
2018-04-25T05:19:28.602Z,19.70
2018-04-25T05:21:55.367Z,19.88
2018-04-25T05:24:22.052Z,19.83
2018-04-25T05:26:48.723Z,20.06
2018-04-25T05:29:15.262Z,20.31
2018-04-25T05:31:47.767Z,20.18
2018-04-25T05:34:14.384Z,20.38
2018-04-25T05:36:41.049Z,20.51
2018-04-25T05:39:07.731Z,20.31
2018-04-25T05:41:37.727Z,20.34
2018-04-25T05:44:04.362Z,20.54
2018-04-25T05:46:31.027Z,20.58
2018-04-25T05:48:57.552Z,20.96
2018-04-25T05:51:25.582Z,20.85
2018-04-25T05:53:52.202Z,20.65
2018-04-25T05:56:18.890Z,20.78
2018-04-25T05:58:45.537Z,20.63
2018-04-25T06:01:20.006Z,20.89
2018-04-25T06:03:46.615Z,21.29
2018-04-25T06:06:13.332Z,21.28
2018-04-25T06:08:39.980Z,21.44
2018-04-25T06:11:12.413Z,21.87
2018-04-25T06:13:39.062Z,21.54
2018-04-25T06:16:05.678Z,21.38
2018-04-25T06:18:32.349Z,21.79
2018-04-25T06:21:04.290Z,22.02
2018-04-25T06:23:30.924Z,21.86
2018-04-25T06:25:57.579Z,22.00
2018-04-25T06:28:24.259Z,21.91
2018-04-25T06:30:54.418Z,22.03
2018-04-25T06:33:21.190Z,21.81
2018-04-25T06:35:47.846Z,22.12
2018-04-25T06:38:14.558Z,22.02
2018-04-25T06:40:42.426Z,22.36
2018-04-25T06:43:09.063Z,22.32
2018-04-25T06:45:35.583Z,22.39
2018-04-25T06:48:02.279Z,22.53
2018-04-25T06:50:41.361Z,22.71
2018-04-25T06:53:07.995Z,23.54
2018-04-25T06:55:34.641Z,23.07
2018-04-25T06:58:01.423Z,23.46
2018-04-25T07:00:46.148Z,22.95
2018-04-25T07:03:12.938Z,23.46
2018-04-25T07:05:39.508Z,23.54
2018-04-25T07:08:06.286Z,23.80
2018-04-25T07:10:51.322Z,23.45
2018-04-25T07:13:17.836Z,23.45
2018-04-25T07:15:44.544Z,23.72
2018-04-25T07:18:11.257Z,23.75
2018-04-25T07:20:44.538Z,24.09
2018-04-25T07:23:11.251Z,23.99
2018-04-25T07:25:37.974Z,24.61
2018-04-25T07:28:04.621Z,24.76
2018-04-25T07:30:32.172Z,24.25
2018-04-25T07:32:58.728Z,25.01
2018-04-25T07:35:25.458Z,24.41
2018-04-25T07:37:52.089Z,25.09
2018-04-25T07:40:18.776Z,25.00
2018-04-25T07:42:45.466Z,24.90
2018-04-25T07:45:12.112Z,24.66
2018-04-25T07:47:38.802Z,25.14
2018-04-25T07:50:08.781Z,25.22
2018-04-25T07:52:35.355Z,24.18
2018-04-25T07:55:01.930Z,24.26
2018-04-25T07:57:28.637Z,24.89
2018-04-25T07:59:55.260Z,25.61
2018-04-25T08:02:21.846Z,24.61
2018-04-25T08:04:48.539Z,24.86
2018-04-25T08:07:15.267Z,24.83
2018-04-25T08:09:42.004Z,24.92
2018-04-25T08:12:21.722Z,25.52
2018-04-25T08:15:00.325Z,25.06
2018-04-25T08:17:38.834Z,25.87
2018-04-25T08:20:17.546Z,25.46
2018-04-25T08:22:44.053Z,26.19
2018-04-25T08:25:10.676Z,26.50
2018-04-25T08:27:37.203Z,26.17
2018-04-25T08:30:07.048Z,25.89
2018-04-25T08:32:33.681Z,26.59
2018-04-25T08:35:00.327Z,26.62
2018-04-25T08:37:26.990Z,27.42
2018-04-25T08:39:53.646Z,27.82
2018-04-25T08:42:20.192Z,25.97
2018-04-25T08:44:46.981Z,26.26
2018-04-25T08:47:13.438Z,27.53
2018-04-25T08:49:40.123Z,27.54
2018-04-25T08:52:06.784Z,27.86
2018-04-25T08:54:33.517Z,27.64
2018-04-25T08:57:00.062Z,28.30
2018-04-25T08:59:26.666Z,27.17
2018-04-25T09:01:59.130Z,26.27
2018-04-25T09:04:25.863Z,25.99
2018-04-25T09:06:55.749Z,26.62
2018-04-25T09:09:22.314Z,27.49
2018-04-25T09:11:49.285Z,27.24
2018-04-25T09:14:15.905Z,27.10
2018-04-25T09:16:42.571Z,26.20
2018-04-25T09:19:09.233Z,27.03
2018-04-25T09:21:36.060Z,27.41
2018-04-25T09:24:02.794Z,27.21
2018-04-25T09:26:29.414Z,27.78
2018-04-25T09:28:56.042Z,27.30
2018-04-25T09:31:26.621Z,27.12
2018-04-25T09:33:53.277Z,28.04
2018-04-25T09:36:19.999Z,27.15
2018-04-25T09:38:46.650Z,27.71
2018-04-25T09:41:23.440Z,28.89
2018-04-25T09:43:50.133Z,29.01
2018-04-25T09:46:16.817Z,28.46
2018-04-25T09:48:43.532Z,28.94
2018-04-25T09:51:15.808Z,29.21
2018-04-25T09:53:42.507Z,28.14
2018-04-25T09:56:09.161Z,27.75
2018-04-25T09:58:35.758Z,28.67
2018-04-25T10:01:09.449Z,29.16
2018-04-25T10:03:42.241Z,27.83
2018-04-25T10:06:08.837Z,30.17
2018-04-25T10:08:35.482Z,29.08
2018-04-25T10:11:03.286Z,27.91
2018-04-25T10:13:29.898Z,28.72
2018-04-25T10:15:56.544Z,30.18
2018-04-25T10:18:23.266Z,30.06
2018-04-25T10:20:53.678Z,30.41
2018-04-25T10:23:20.356Z,28.97
2018-04-25T10:25:47.010Z,30.41
2018-04-25T10:28:13.645Z,30.78
2018-04-25T10:30:45.841Z,28.68
2018-04-25T10:33:12.551Z,28.75
2018-04-25T10:35:39.122Z,28.63
2018-04-25T10:38:05.795Z,27.76
2018-04-25T10:40:33.578Z,27.70
2018-04-25T10:43:00.104Z,28.17
2018-04-25T10:45:26.811Z,29.22
2018-04-25T10:47:53.526Z,29.51
2018-04-25T10:50:30.506Z,30.03
2018-04-25T10:52:57.174Z,28.34
2018-04-25T10:55:23.874Z,28.67
2018-04-25T10:57:50.505Z,29.15
2018-04-25T11:00:30.110Z,27.58
2018-04-25T11:02:57.089Z,28.13
2018-04-25T11:05:23.794Z,28.71
2018-04-25T11:07:56.918Z,29.82
2018-04-25T11:10:28.494Z,29.90
2018-04-25T11:12:55.174Z,30.26
2018-04-25T11:15:21.882Z,27.69
2018-04-25T11:17:48.522Z,27.39
2018-04-25T11:20:19.291Z,27.92
2018-04-25T11:22:45.846Z,30.04
2018-04-25T11:25:12.336Z,29.94
2018-04-25T11:27:39.049Z,29.40
2018-04-25T11:30:05.825Z,30.62
2018-04-25T11:32:33.382Z,31.81
2018-04-25T11:35:00.085Z,29.57
2018-04-25T11:37:26.758Z,28.84
2018-04-25T11:39:57.058Z,26.70
2018-04-25T11:42:23.730Z,27.95
2018-04-25T11:44:50.501Z,27.33
2018-04-25T11:47:17.175Z,28.05
2018-04-25T11:49:54.193Z,27.58
2018-04-25T11:52:20.876Z,28.18
2018-04-25T11:54:48.034Z,27.46
2018-04-25T11:57:14.711Z,27.08
2018-04-25T11:59:46.602Z,27.03
2018-04-25T12:02:13.129Z,28.39
2018-04-25T12:04:39.774Z,27.97
2018-04-25T12:07:06.397Z,27.86
2018-04-25T12:09:33.666Z,26.69
2018-04-25T12:12:00.312Z,26.05
2018-04-25T12:14:27.025Z,27.22
2018-04-25T12:16:53.690Z,26.30
2018-04-25T12:19:24.338Z,26.03
2018-04-25T12:21:50.908Z,27.29
2018-04-25T12:24:17.638Z,28.69
2018-04-25T12:26:44.241Z,27.85
2018-04-25T12:29:10.979Z,29.54
2018-04-25T12:31:37.636Z,28.49
2018-04-25T12:34:04.314Z,27.19
2018-04-25T12:36:31.041Z,28.25
2018-04-25T12:38:57.690Z,26.34
2018-04-25T12:41:28.338Z,28.34
2018-04-25T12:43:55.075Z,28.32
2018-04-25T12:46:21.678Z,28.68
2018-04-25T12:48:48.231Z,29.26
2018-04-25T12:51:19.605Z,28.74
2018-04-25T12:53:46.281Z,27.37
2018-04-25T12:56:12.906Z,27.30
2018-04-25T12:58:39.520Z,29.41
2018-04-25T13:01:13.212Z,27.30
2018-04-25T13:03:39.978Z,27.07
2018-04-25T13:06:06.522Z,28.40
2018-04-25T13:08:33.227Z,28.34
2018-04-25T13:11:10.464Z,29.06
2018-04-25T13:13:37.278Z,28.25
2018-04-25T13:16:04.011Z,27.83
2018-04-25T13:18:30.671Z,28.27
2018-04-25T13:21:07.303Z,27.97
2018-04-25T13:23:34.008Z,28.29
2018-04-25T13:26:00.745Z,29.59
2018-04-25T13:28:27.425Z,27.77
2018-04-25T13:30:57.621Z,27.24
2018-04-25T13:33:24.330Z,26.95
2018-04-25T13:35:50.935Z,27.33
2018-04-25T13:38:17.563Z,27.25
2018-04-25T13:40:47.586Z,27.19
2018-04-25T13:43:14.176Z,27.54
2018-04-25T13:45:40.785Z,27.65
2018-04-25T13:48:07.268Z,27.96
2018-04-25T13:50:48.229Z,28.04
2018-04-25T13:53:14.925Z,26.29
2018-04-25T13:55:41.481Z,27.67
2018-04-25T13:58:08.113Z,27.70
2018-04-25T14:00:41.391Z,27.45
2018-04-25T14:03:08.015Z,28.73
2018-04-25T14:05:34.771Z,28.51
2018-04-25T14:08:01.351Z,28.02
2018-04-25T14:10:35.561Z,28.65
2018-04-25T14:13:02.248Z,29.56
2018-04-25T14:15:28.799Z,27.93
2018-04-25T14:17:55.449Z,28.16
2018-04-25T14:20:26.962Z,27.40
2018-04-25T14:22:53.647Z,27.64
2018-04-25T14:25:20.248Z,28.51
2018-04-25T14:27:46.908Z,27.30
2018-04-25T14:30:18.899Z,27.76
2018-04-25T14:32:45.517Z,25.58
2018-04-25T14:35:13.199Z,26.73
2018-04-25T14:37:39.879Z,26.12
2018-04-25T14:40:19.364Z,26.63
2018-04-25T14:42:45.920Z,25.73
2018-04-25T14:45:12.578Z,25.55
2018-04-25T14:47:39.313Z,25.66
2018-04-25T14:50:05.829Z,26.58
2018-04-25T14:52:32.474Z,25.70
2018-04-25T14:54:59.217Z,25.71
2018-04-25T14:57:25.843Z,25.81
2018-04-25T15:00:05.463Z,27.35
2018-04-25T15:02:32.235Z,26.45
2018-04-25T15:04:58.914Z,27.40
2018-04-25T15:07:25.718Z,29.02
2018-04-25T15:10:02.675Z,27.75
2018-04-25T15:12:29.382Z,28.46
2018-04-25T15:14:56.029Z,27.50
2018-04-25T15:17:22.753Z,26.97
2018-04-25T15:19:50.541Z,26.79
2018-04-25T15:22:17.104Z,24.68
2018-04-25T15:24:43.690Z,25.95
2018-04-25T15:27:10.414Z,26.12
2018-04-25T15:29:43.477Z,26.93
2018-04-25T15:32:10.109Z,28.35
2018-04-25T15:34:36.779Z,27.31
2018-04-25T15:37:03.354Z,27.01
2018-04-25T15:39:33.503Z,26.21
2018-04-25T15:42:00.212Z,25.86
2018-04-25T15:44:26.862Z,26.71
2018-04-25T15:46:53.569Z,26.91
2018-04-25T15:49:21.463Z,26.68
2018-04-25T15:51:47.970Z,25.84
2018-04-25T15:54:14.623Z,25.93
2018-04-25T15:56:41.232Z,25.47
2018-04-25T15:59:08.867Z,26.18
2018-04-25T16:01:35.524Z,26.62
2018-04-25T16:04:02.251Z,26.08
2018-04-25T16:06:29.412Z,26.29
2018-04-25T16:09:01.207Z,26.23
2018-04-25T16:11:27.767Z,24.46
2018-04-25T16:13:54.434Z,24.97
2018-04-25T16:16:21.106Z,23.48
2018-04-25T16:18:53.545Z,22.44
2018-04-25T16:21:20.193Z,22.54
2018-04-25T16:23:47.426Z,21.96
2018-04-25T16:26:14.135Z,21.63
2018-04-25T16:28:43.733Z,21.13
2018-04-25T16:31:10.330Z,21.25
2018-04-25T16:33:37.045Z,21.02
2018-04-25T16:36:03.606Z,21.07
2018-04-25T16:38:30.213Z,20.82
2018-04-25T16:40:56.755Z,20.71
2018-04-25T16:43:23.409Z,20.92
2018-04-25T16:45:50.185Z,20.86
2018-04-25T16:48:16.775Z,21.09
2018-04-25T16:50:51.039Z,21.85
2018-04-25T16:53:17.614Z,21.55
2018-04-25T16:55:44.265Z,21.31
2018-04-25T16:58:10.829Z,20.87
2018-04-25T17:00:42.098Z,22.10
2018-04-25T17:03:08.689Z,22.43
2018-04-25T17:05:35.354Z,21.64
2018-04-25T17:08:02.011Z,21.27
2018-04-25T17:10:42.441Z,22.32
2018-04-25T17:13:09.005Z,22.26
2018-04-25T17:15:35.731Z,21.31
2018-04-25T17:18:02.319Z,22.04
2018-04-25T17:20:36.714Z,21.98
2018-04-25T17:23:03.456Z,20.66
2018-04-25T17:25:30.061Z,20.90
2018-04-25T17:27:56.668Z,20.67
2018-04-25T17:30:27.279Z,20.31
2018-04-25T17:32:53.886Z,20.25
2018-04-25T17:35:20.605Z,20.06
2018-04-25T17:37:47.323Z,20.19
2018-04-25T17:40:17.131Z,19.79
2018-04-25T17:42:43.743Z,19.95
2018-04-25T17:45:10.408Z,19.08
2018-04-25T17:47:37.151Z,18.84
2018-04-25T17:50:11.164Z,19.47
2018-04-25T17:52:37.761Z,19.51
2018-04-25T17:55:04.471Z,19.09
2018-04-25T17:57:31.179Z,19.23
2018-04-25T18:00:04.435Z,19.55
2018-04-25T18:02:31.149Z,19.52
2018-04-25T18:04:57.897Z,19.61
2018-04-25T18:07:24.458Z,19.32
2018-04-25T18:09:54.784Z,19.50
2018-04-25T18:12:21.487Z,19.24
2018-04-25T18:14:48.179Z,19.16
2018-04-25T18:17:15.327Z,18.73
2018-04-25T18:19:43.012Z,19.74
2018-04-25T18:22:09.675Z,18.95
2018-04-25T18:24:36.434Z,19.21
2018-04-25T18:27:03.070Z,19.01
2018-04-25T18:29:30.853Z,18.87
2018-04-25T18:31:57.582Z,19.14
2018-04-25T18:34:24.331Z,19.37
2018-04-25T18:36:50.948Z,19.29
2018-04-25T18:39:19.069Z,19.34
2018-04-25T18:41:45.781Z,19.31
2018-04-25T18:44:12.529Z,18.67
2018-04-25T18:46:39.221Z,17.97
2018-04-25T18:49:09.499Z,18.08
2018-04-25T18:51:36.492Z,17.45
2018-04-25T18:54:03.001Z,17.73
2018-04-25T18:56:29.760Z,18.46
2018-04-25T18:59:00.576Z,17.88
2018-04-25T19:01:27.300Z,17.40
2018-04-25T19:03:55.234Z,18.03
2018-04-25T19:06:22.894Z,18.15
2018-04-25T19:08:54.112Z,18.16
2018-04-25T19:11:20.988Z,17.81
2018-04-25T19:13:47.685Z,17.86
2018-04-25T19:16:14.557Z,17.19
2018-04-25T19:18:42.327Z,16.90
2018-04-25T19:21:09.049Z,17.93
2018-04-25T19:23:36.182Z,17.36
2018-04-25T19:26:04.039Z,17.66
2018-04-25T19:28:34.270Z,17.80
2018-04-25T19:31:00.972Z,17.70
2018-04-25T19:33:27.688Z,17.68
2018-04-25T19:35:54.482Z,17.61
2018-04-25T19:38:24.311Z,17.23
2018-04-25T19:40:51.169Z,17.58
2018-04-25T19:43:17.959Z,17.31
2018-04-25T19:45:44.600Z,17.37
2018-04-25T19:48:11.322Z,17.42
2018-04-25T19:50:38.048Z,17.20
2018-04-25T19:53:04.864Z,17.23
2018-04-25T19:55:31.569Z,17.37
2018-04-25T19:57:58.293Z,16.84
2018-04-25T20:00:29.860Z,17.11
2018-04-25T20:02:56.521Z,16.96
2018-04-25T20:05:23.251Z,17.16
2018-04-25T20:07:49.830Z,17.20
2018-04-25T20:10:16.613Z,17.33
2018-04-25T20:12:43.173Z,17.29
2018-04-25T20:15:09.798Z,17.25
2018-04-25T20:17:37.288Z,17.20
2018-04-25T20:20:08.262Z,17.24
2018-04-25T20:22:34.859Z,17.25
2018-04-25T20:25:01.634Z,17.32
2018-04-25T20:27:28.262Z,17.11
2018-04-25T20:29:55.010Z,17.12
2018-04-25T20:32:21.747Z,17.01
2018-04-25T20:34:48.459Z,16.91
2018-04-25T20:37:15.100Z,17.08
2018-04-25T20:39:42.218Z,16.96
2018-04-25T20:42:08.856Z,16.81
2018-04-25T20:44:35.456Z,16.79
2018-04-25T20:47:02.118Z,16.81
2018-04-25T20:49:34.942Z,16.84
2018-04-25T20:52:01.511Z,16.82
2018-04-25T20:54:28.125Z,16.32
2018-04-25T20:56:54.755Z,16.59
2018-04-25T20:59:21.678Z,16.78
2018-04-25T21:01:48.353Z,16.84
2018-04-25T21:04:15.150Z,16.82
2018-04-25T21:06:41.706Z,16.84
2018-04-25T21:09:18.566Z,16.97
2018-04-25T21:11:45.058Z,16.89
2018-04-25T21:14:11.696Z,16.68
2018-04-25T21:16:38.429Z,16.22
2018-04-25T21:19:05.096Z,16.49
2018-04-25T21:21:31.894Z,16.62
2018-04-25T21:23:58.622Z,16.42
2018-04-25T21:26:25.201Z,16.26
2018-04-25T21:28:52.972Z,16.29
2018-04-25T21:31:19.668Z,16.19
2018-04-25T21:33:46.295Z,16.26
2018-04-25T21:36:12.982Z,16.30
2018-04-25T21:38:40.663Z,16.39
2018-04-25T21:41:07.205Z,16.33
2018-04-25T21:43:33.835Z,16.07
2018-04-25T21:46:00.445Z,16.30
2018-04-25T21:48:43.974Z,16.50
2018-04-25T21:51:10.712Z,16.00
2018-04-25T21:53:37.238Z,16.17
2018-04-25T21:56:03.890Z,16.30
2018-04-25T21:58:44.765Z,16.31
2018-04-25T22:01:11.293Z,16.53
2018-04-25T22:03:38.726Z,16.52
2018-04-25T22:06:05.386Z,16.49
2018-04-25T22:08:32.000Z,16.44
2018-04-25T22:10:58.591Z,16.48
2018-04-25T22:13:25.253Z,16.57
2018-04-25T22:15:51.976Z,16.11
2018-04-25T22:18:24.612Z,15.67
2018-04-25T22:20:51.178Z,15.51
2018-04-25T22:23:17.850Z,16.06
2018-04-25T22:25:44.952Z,15.76
2018-04-25T22:28:12.665Z,15.67
2018-04-25T22:30:39.314Z,15.83
2018-04-25T22:33:05.940Z,15.56
2018-04-25T22:35:32.634Z,15.49
2018-04-25T22:38:02.511Z,15.52
2018-04-25T22:40:29.511Z,15.82
2018-04-25T22:42:56.244Z,16.12
2018-04-25T22:45:22.879Z,16.14
2018-04-25T22:47:49.551Z,16.14
2018-04-25T22:50:16.215Z,16.33
2018-04-25T22:52:43.322Z,16.22
2018-04-25T22:55:09.903Z,16.31
2018-04-25T22:57:36.559Z,16.28
2018-04-25T23:00:03.208Z,15.88
2018-04-25T23:02:29.727Z,16.03
2018-04-25T23:04:56.369Z,16.12
2018-04-25T23:07:23.039Z,16.12
2018-04-25T23:09:49.732Z,16.17
2018-04-25T23:12:16.226Z,16.20
2018-04-25T23:14:42.909Z,16.19
2018-04-25T23:17:09.618Z,15.72
2018-04-25T23:19:42.610Z,15.58
2018-04-25T23:22:09.216Z,15.52
2018-04-25T23:24:35.720Z,15.60
2018-04-25T23:27:02.293Z,15.59
2018-04-25T23:29:32.202Z,15.78
2018-04-25T23:31:58.851Z,15.91
2018-04-25T23:34:25.482Z,16.05
2018-04-25T23:36:52.096Z,16.14
2018-04-25T23:39:22.037Z,16.06
2018-04-25T23:41:48.732Z,15.72
2018-04-25T23:44:15.243Z,15.87
2018-04-25T23:46:41.908Z,15.96
2018-04-25T23:49:13.926Z,15.86
2018-04-25T23:51:40.578Z,15.89
2018-04-25T23:54:07.209Z,15.89
2018-04-25T23:56:33.865Z,15.91
2018-04-25T23:59:00.497Z,15.79
